sensor_id;sensor_type;location;lat;lon;timestamp;P1;durP1;ratioP1;P2;durP2;ratioP2
69847;SDS011;57143;55.940;37.496;2023-08-06T00:02:19;16.98;;;8.98;;
69847;SDS011;57143;55.940;37.496;2023-08-06T00:04:46;23.08;;;8.27;;
69847;SDS011;57143;55.940;37.496;2023-08-06T00:07:13;19.48;;;8.20;;
69847;SDS011;57143;55.940;37.496;2023-08-06T00:09:41;14.32;;;7.97;;
69847;SDS011;57143;55.940;37.496;2023-08-06T00:12:09;14.57;;;7.37;;
69847;SDS011;57143;55.940;37.496;2023-08-06T00:14:36;14.70;;;7.80;;
69847;SDS011;57143;55.940;37.496;2023-08-06T00:17:03;15.45;;;8.25;;
69847;SDS011;57143;55.940;37.496;2023-08-06T00:19:31;16.13;;;8.82;;
69847;SDS011;57143;55.940;37.496;2023-08-06T00:21:58;18.58;;;9.40;;
69847;SDS011;57143;55.940;37.496;2023-08-06T00:24:27;15.10;;;7.80;;
69847;SDS011;57143;55.940;37.496;2023-08-06T00:26:54;18.00;;;8.68;;
69847;SDS011;57143;55.940;37.496;2023-08-06T00:29:23;19.27;;;9.00;;
69847;SDS011;57143;55.940;37.496;2023-08-06T00:31:50;15.18;;;7.93;;
69847;SDS011;57143;55.940;37.496;2023-08-06T00:34:17;15.75;;;8.88;;
69847;SDS011;57143;55.940;37.496;2023-08-06T00:36:44;18.60;;;9.40;;
69847;SDS011;57143;55.940;37.496;2023-08-06T00:39:12;14.15;;;8.35;;
69847;SDS011;57143;55.940;37.496;2023-08-06T00:41:39;15.63;;;8.50;;
69847;SDS011;57143;55.940;37.496;2023-08-06T00:44:07;17.30;;;8.30;;
69847;SDS011;57143;55.940;37.496;2023-08-06T00:46:35;18.45;;;9.43;;
69847;SDS011;57143;55.940;37.496;2023-08-06T00:49:03;17.10;;;8.97;;
69847;SDS011;57143;55.940;37.496;2023-08-06T00:51:31;14.45;;;8.60;;
69847;SDS011;57143;55.940;37.496;2023-08-06T00:53:59;19.02;;;8.55;;
69847;SDS011;57143;55.940;37.496;2023-08-06T00:56:27;19.65;;;9.15;;
69847;SDS011;57143;55.940;37.496;2023-08-06T00:58:55;16.70;;;9.15;;
69847;SDS011;57143;55.940;37.496;2023-08-06T01:01:22;16.73;;;8.90;;
69847;SDS011;57143;55.940;37.496;2023-08-06T01:03:51;16.10;;;8.90;;
69847;SDS011;57143;55.940;37.496;2023-08-06T01:06:19;16.95;;;8.60;;
69847;SDS011;57143;55.940;37.496;2023-08-06T01:09:01;12.82;;;8.48;;
69847;SDS011;57143;55.940;37.496;2023-08-06T01:11:38;15.85;;;8.68;;
69847;SDS011;57143;55.940;37.496;2023-08-06T01:14:13;16.33;;;8.77;;
69847;SDS011;57143;55.940;37.496;2023-08-06T01:16:50;18.40;;;8.05;;
69847;SDS011;57143;55.940;37.496;2023-08-06T01:19:19;18.80;;;8.50;;
69847;SDS011;57143;55.940;37.496;2023-08-06T01:21:48;14.73;;;8.63;;
69847;SDS011;57143;55.940;37.496;2023-08-06T01:24:15;17.92;;;9.45;;
69847;SDS011;57143;55.940;37.496;2023-08-06T01:26:44;18.50;;;9.20;;
69847;SDS011;57143;55.940;37.496;2023-08-06T01:29:18;18.02;;;9.88;;
69847;SDS011;57143;55.940;37.496;2023-08-06T01:31:50;20.40;;;9.07;;
69847;SDS011;57143;55.940;37.496;2023-08-06T01:34:20;20.17;;;9.35;;
69847;SDS011;57143;55.940;37.496;2023-08-06T01:36:51;15.32;;;8.00;;
69847;SDS011;57143;55.940;37.496;2023-08-06T01:39:19;15.93;;;8.80;;
69847;SDS011;57143;55.940;37.496;2023-08-06T01:41:47;17.55;;;9.35;;
69847;SDS011;57143;55.940;37.496;2023-08-06T01:44:13;17.17;;;9.13;;
69847;SDS011;57143;55.940;37.496;2023-08-06T01:46:40;20.15;;;9.25;;
69847;SDS011;57143;55.940;37.496;2023-08-06T01:49:07;14.20;;;9.60;;
69847;SDS011;57143;55.940;37.496;2023-08-06T01:51:34;18.97;;;10.27;;
69847;SDS011;57143;55.940;37.496;2023-08-06T01:54:03;17.17;;;9.93;;
69847;SDS011;57143;55.940;37.496;2023-08-06T01:56:30;16.27;;;8.65;;
69847;SDS011;57143;55.940;37.496;2023-08-06T01:58:57;17.70;;;9.30;;
69847;SDS011;57143;55.940;37.496;2023-08-06T02:01:25;17.30;;;9.38;;
69847;SDS011;57143;55.940;37.496;2023-08-06T02:03:52;17.00;;;8.53;;
69847;SDS011;57143;55.940;37.496;2023-08-06T02:06:19;15.85;;;9.40;;
69847;SDS011;57143;55.940;37.496;2023-08-06T02:08:46;15.27;;;7.20;;
69847;SDS011;57143;55.940;37.496;2023-08-06T02:11:15;16.15;;;8.77;;
69847;SDS011;57143;55.940;37.496;2023-08-06T02:13:42;15.02;;;9.38;;
69847;SDS011;57143;55.940;37.496;2023-08-06T02:16:09;19.23;;;9.17;;
69847;SDS011;57143;55.940;37.496;2023-08-06T02:18:36;19.80;;;9.15;;
69847;SDS011;57143;55.940;37.496;2023-08-06T02:21:03;19.15;;;9.00;;
69847;SDS011;57143;55.940;37.496;2023-08-06T02:23:30;16.65;;;8.35;;
69847;SDS011;57143;55.940;37.496;2023-08-06T02:25:58;16.90;;;9.27;;
69847;SDS011;57143;55.940;37.496;2023-08-06T02:28:28;15.70;;;8.40;;
69847;SDS011;57143;55.940;37.496;2023-08-06T02:30:55;19.70;;;9.70;;
69847;SDS011;57143;55.940;37.496;2023-08-06T02:33:22;19.13;;;8.93;;
69847;SDS011;57143;55.940;37.496;2023-08-06T02:35:50;17.45;;;9.63;;
69847;SDS011;57143;55.940;37.496;2023-08-06T02:38:17;16.65;;;9.77;;
69847;SDS011;57143;55.940;37.496;2023-08-06T02:40:44;17.10;;;8.93;;
69847;SDS011;57143;55.940;37.496;2023-08-06T02:43:12;18.05;;;9.20;;
69847;SDS011;57143;55.940;37.496;2023-08-06T02:45:41;13.35;;;7.93;;
69847;SDS011;57143;55.940;37.496;2023-08-06T02:48:08;17.48;;;9.45;;
69847;SDS011;57143;55.940;37.496;2023-08-06T02:50:39;16.80;;;9.35;;
69847;SDS011;57143;55.940;37.496;2023-08-06T02:53:06;19.47;;;9.50;;
69847;SDS011;57143;55.940;37.496;2023-08-06T02:55:34;17.10;;;9.60;;
69847;SDS011;57143;55.940;37.496;2023-08-06T02:58:01;15.93;;;9.40;;
69847;SDS011;57143;55.940;37.496;2023-08-06T03:00:29;17.73;;;9.80;;
69847;SDS011;57143;55.940;37.496;2023-08-06T03:02:57;20.35;;;9.30;;
69847;SDS011;57143;55.940;37.496;2023-08-06T03:05:24;17.87;;;8.80;;
69847;SDS011;57143;55.940;37.496;2023-08-06T03:07:50;15.82;;;8.75;;
69847;SDS011;57143;55.940;37.496;2023-08-06T03:10:18;16.38;;;8.23;;
69847;SDS011;57143;55.940;37.496;2023-08-06T03:12:45;13.75;;;9.48;;
69847;SDS011;57143;55.940;37.496;2023-08-06T03:15:12;14.20;;;8.10;;
69847;SDS011;57143;55.940;37.496;2023-08-06T03:17:40;15.13;;;9.70;;
69847;SDS011;57143;55.940;37.496;2023-08-06T03:20:09;13.15;;;8.27;;
69847;SDS011;57143;55.940;37.496;2023-08-06T03:22:36;19.58;;;8.80;;
69847;SDS011;57143;55.940;37.496;2023-08-06T03:25:04;18.85;;;9.10;;
69847;SDS011;57143;55.940;37.496;2023-08-06T03:27:32;14.45;;;8.38;;
69847;SDS011;57143;55.940;37.496;2023-08-06T03:29:59;16.53;;;8.67;;
69847;SDS011;57143;55.940;37.496;2023-08-06T03:32:30;16.65;;;8.68;;
69847;SDS011;57143;55.940;37.496;2023-08-06T03:34:57;14.57;;;8.65;;
69847;SDS011;57143;55.940;37.496;2023-08-06T03:37:26;16.45;;;8.85;;
69847;SDS011;57143;55.940;37.496;2023-08-06T03:39:53;14.90;;;8.60;;
69847;SDS011;57143;55.940;37.496;2023-08-06T03:42:20;18.90;;;9.17;;
69847;SDS011;57143;55.940;37.496;2023-08-06T03:44:47;15.10;;;8.93;;
69847;SDS011;57143;55.940;37.496;2023-08-06T03:47:14;15.48;;;9.05;;
69847;SDS011;57143;55.940;37.496;2023-08-06T03:49:42;13.95;;;8.88;;
69847;SDS011;57143;55.940;37.496;2023-08-06T03:52:09;16.30;;;9.30;;
69847;SDS011;57143;55.940;37.496;2023-08-06T03:54:38;16.40;;;9.37;;
69847;SDS011;57143;55.940;37.496;2023-08-06T03:57:05;13.32;;;8.90;;
69847;SDS011;57143;55.940;37.496;2023-08-06T03:59:33;14.43;;;8.82;;
69847;SDS011;57143;55.940;37.496;2023-08-06T04:02:00;15.55;;;8.38;;
69847;SDS011;57143;55.940;37.496;2023-08-06T04:04:27;14.82;;;8.40;;
69847;SDS011;57143;55.940;37.496;2023-08-06T04:06:54;17.17;;;8.47;;
69847;SDS011;57143;55.940;37.496;2023-08-06T04:09:21;16.48;;;8.85;;
69847;SDS011;57143;55.940;37.496;2023-08-06T04:11:50;16.02;;;8.35;;
69847;SDS011;57143;55.940;37.496;2023-08-06T04:14:17;14.93;;;9.10;;
69847;SDS011;57143;55.940;37.496;2023-08-06T04:16:44;15.05;;;8.93;;
69847;SDS011;57143;55.940;37.496;2023-08-06T04:19:11;16.53;;;8.73;;
69847;SDS011;57143;55.940;37.496;2023-08-06T04:21:39;17.40;;;9.50;;
69847;SDS011;57143;55.940;37.496;2023-08-06T04:24:06;14.13;;;8.77;;
69847;SDS011;57143;55.940;37.496;2023-08-06T04:26:33;16.98;;;8.75;;
69847;SDS011;57143;55.940;37.496;2023-08-06T04:29:01;17.92;;;9.60;;
69847;SDS011;57143;55.940;37.496;2023-08-06T04:31:29;15.47;;;8.90;;
69847;SDS011;57143;55.940;37.496;2023-08-06T04:33:56;18.75;;;9.77;;
69847;SDS011;57143;55.940;37.496;2023-08-06T04:36:23;17.88;;;9.52;;
69847;SDS011;57143;55.940;37.496;2023-08-06T04:38:50;18.45;;;10.35;;
69847;SDS011;57143;55.940;37.496;2023-08-06T04:41:17;14.13;;;9.25;;
69847;SDS011;57143;55.940;37.496;2023-08-06T04:43:45;16.53;;;9.03;;
69847;SDS011;57143;55.940;37.496;2023-08-06T04:46:13;15.57;;;9.95;;
69847;SDS011;57143;55.940;37.496;2023-08-06T04:48:40;16.60;;;9.18;;
69847;SDS011;57143;55.940;37.496;2023-08-06T04:51:07;20.52;;;9.98;;
69847;SDS011;57143;55.940;37.496;2023-08-06T04:53:35;17.83;;;9.30;;
69847;SDS011;57143;55.940;37.496;2023-08-06T04:56:03;18.73;;;9.00;;
69847;SDS011;57143;55.940;37.496;2023-08-06T04:58:30;19.35;;;10.02;;
69847;SDS011;57143;55.940;37.496;2023-08-06T05:00:57;16.90;;;9.23;;
69847;SDS011;57143;55.940;37.496;2023-08-06T05:03:26;17.63;;;9.50;;
69847;SDS011;57143;55.940;37.496;2023-08-06T05:05:53;21.23;;;8.93;;
69847;SDS011;57143;55.940;37.496;2023-08-06T05:08:20;20.57;;;9.40;;
69847;SDS011;57143;55.940;37.496;2023-08-06T05:10:47;17.02;;;9.30;;
69847;SDS011;57143;55.940;37.496;2023-08-06T05:13:14;18.77;;;9.18;;
69847;SDS011;57143;55.940;37.496;2023-08-06T05:15:42;20.58;;;8.70;;
69847;SDS011;57143;55.940;37.496;2023-08-06T05:18:10;21.77;;;9.68;;
69847;SDS011;57143;55.940;37.496;2023-08-06T05:20:40;20.07;;;8.93;;
69847;SDS011;57143;55.940;37.496;2023-08-06T05:23:08;19.80;;;9.23;;
69847;SDS011;57143;55.940;37.496;2023-08-06T05:25:35;20.00;;;9.05;;
69847;SDS011;57143;55.940;37.496;2023-08-06T05:28:03;16.38;;;9.75;;
69847;SDS011;57143;55.940;37.496;2023-08-06T05:30:30;17.08;;;8.48;;
69847;SDS011;57143;55.940;37.496;2023-08-06T05:32:58;16.23;;;8.90;;
69847;SDS011;57143;55.940;37.496;2023-08-06T05:35:25;17.02;;;7.78;;
69847;SDS011;57143;55.940;37.496;2023-08-06T05:37:53;19.08;;;8.77;;
69847;SDS011;57143;55.940;37.496;2023-08-06T05:40:20;16.98;;;8.95;;
69847;SDS011;57143;55.940;37.496;2023-08-06T05:42:47;16.27;;;8.73;;
69847;SDS011;57143;55.940;37.496;2023-08-06T05:45:15;19.10;;;8.60;;
69847;SDS011;57143;55.940;37.496;2023-08-06T05:47:42;15.13;;;8.85;;
69847;SDS011;57143;55.940;37.496;2023-08-06T05:50:10;16.05;;;8.23;;
69847;SDS011;57143;55.940;37.496;2023-08-06T05:52:37;15.02;;;8.02;;
69847;SDS011;57143;55.940;37.496;2023-08-06T05:55:06;17.30;;;7.78;;
69847;SDS011;57143;55.940;37.496;2023-08-06T05:57:34;15.07;;;8.60;;
69847;SDS011;57143;55.940;37.496;2023-08-06T06:00:01;15.88;;;8.57;;
69847;SDS011;57143;55.940;37.496;2023-08-06T06:02:32;12.68;;;7.60;;
69847;SDS011;57143;55.940;37.496;2023-08-06T06:04:59;16.15;;;8.52;;
69847;SDS011;57143;55.940;37.496;2023-08-06T06:07:26;13.48;;;8.00;;
69847;SDS011;57143;55.940;37.496;2023-08-06T06:09:53;18.80;;;7.60;;
69847;SDS011;57143;55.940;37.496;2023-08-06T06:12:22;15.55;;;8.07;;
69847;SDS011;57143;55.940;37.496;2023-08-06T06:14:51;21.45;;;8.07;;
69847;SDS011;57143;55.940;37.496;2023-08-06T06:17:18;14.98;;;8.25;;
69847;SDS011;57143;55.940;37.496;2023-08-06T06:19:45;16.60;;;8.00;;
69847;SDS011;57143;55.940;37.496;2023-08-06T06:22:13;17.53;;;8.10;;
69847;SDS011;57143;55.940;37.496;2023-08-06T06:24:41;16.10;;;8.70;;
69847;SDS011;57143;55.940;37.496;2023-08-06T06:27:08;14.05;;;7.70;;
69847;SDS011;57143;55.940;37.496;2023-08-06T06:29:37;16.55;;;7.53;;
69847;SDS011;57143;55.940;37.496;2023-08-06T06:32:05;13.90;;;7.50;;
69847;SDS011;57143;55.940;37.496;2023-08-06T06:34:33;13.47;;;7.43;;
69847;SDS011;57143;55.940;37.496;2023-08-06T06:37:00;16.38;;;7.45;;
69847;SDS011;57143;55.940;37.496;2023-08-06T06:39:27;17.10;;;6.95;;
69847;SDS011;57143;55.940;37.496;2023-08-06T06:41:54;17.52;;;7.22;;
69847;SDS011;57143;55.940;37.496;2023-08-06T06:44:21;12.20;;;6.88;;
69847;SDS011;57143;55.940;37.496;2023-08-06T06:46:50;14.10;;;7.20;;
69847;SDS011;57143;55.940;37.496;2023-08-06T06:49:17;13.27;;;7.10;;
69847;SDS011;57143;55.940;37.496;2023-08-06T06:51:45;10.98;;;6.63;;
69847;SDS011;57143;55.940;37.496;2023-08-06T06:54:12;12.98;;;6.75;;
69847;SDS011;57143;55.940;37.496;2023-08-06T06:56:39;14.45;;;7.57;;
69847;SDS011;57143;55.940;37.496;2023-08-06T06:59:06;21.60;;;7.27;;
69847;SDS011;57143;55.940;37.496;2023-08-06T07:01:33;18.05;;;7.35;;
69847;SDS011;57143;55.940;37.496;2023-08-06T07:04:02;14.93;;;7.40;;
69847;SDS011;57143;55.940;37.496;2023-08-06T07:06:30;13.80;;;6.68;;
69847;SDS011;57143;55.940;37.496;2023-08-06T07:08:57;12.40;;;6.32;;
69847;SDS011;57143;55.940;37.496;2023-08-06T07:11:25;12.20;;;7.03;;
69847;SDS011;57143;55.940;37.496;2023-08-06T07:13:55;11.68;;;6.93;;
69847;SDS011;57143;55.940;37.496;2023-08-06T07:16:23;12.15;;;6.78;;
69847;SDS011;57143;55.940;37.496;2023-08-06T07:18:51;14.65;;;6.65;;
69847;SDS011;57143;55.940;37.496;2023-08-06T07:21:20;11.13;;;6.63;;
69847;SDS011;57143;55.940;37.496;2023-08-06T07:23:47;13.90;;;6.53;;
69847;SDS011;57143;55.940;37.496;2023-08-06T07:26:15;14.00;;;6.10;;
69847;SDS011;57143;55.940;37.496;2023-08-06T07:28:43;11.45;;;5.78;;
69847;SDS011;57143;55.940;37.496;2023-08-06T07:31:10;10.52;;;5.93;;
69847;SDS011;57143;55.940;37.496;2023-08-06T07:33:37;9.65;;;6.68;;
69847;SDS011;57143;55.940;37.496;2023-08-06T07:36:08;13.27;;;6.20;;
69847;SDS011;57143;55.940;37.496;2023-08-06T07:38:37;9.45;;;6.05;;
69847;SDS011;57143;55.940;37.496;2023-08-06T07:41:04;13.55;;;6.20;;
69847;SDS011;57143;55.940;37.496;2023-08-06T07:43:32;11.68;;;6.38;;
69847;SDS011;57143;55.940;37.496;2023-08-06T07:46:01;14.77;;;6.32;;
69847;SDS011;57143;55.940;37.496;2023-08-06T07:48:28;9.90;;;5.13;;
69847;SDS011;57143;55.940;37.496;2023-08-06T07:50:56;11.15;;;6.15;;
69847;SDS011;57143;55.940;37.496;2023-08-06T07:53:25;12.70;;;5.38;;
69847;SDS011;57143;55.940;37.496;2023-08-06T07:55:56;9.68;;;5.95;;
69847;SDS011;57143;55.940;37.496;2023-08-06T07:58:24;9.57;;;5.80;;
69847;SDS011;57143;55.940;37.496;2023-08-06T08:00:52;16.53;;;5.97;;
69847;SDS011;57143;55.940;37.496;2023-08-06T08:03:19;11.43;;;5.95;;
69847;SDS011;57143;55.940;37.496;2023-08-06T08:05:46;11.13;;;5.20;;
69847;SDS011;57143;55.940;37.496;2023-08-06T08:08:13;9.90;;;5.55;;
69847;SDS011;57143;55.940;37.496;2023-08-06T08:10:41;9.75;;;5.38;;
69847;SDS011;57143;55.940;37.496;2023-08-06T08:13:10;10.60;;;5.50;;
69847;SDS011;57143;55.940;37.496;2023-08-06T08:15:37;11.68;;;5.15;;
69847;SDS011;57143;55.940;37.496;2023-08-06T08:18:04;10.55;;;6.25;;
69847;SDS011;57143;55.940;37.496;2023-08-06T08:20:31;11.23;;;5.70;;
69847;SDS011;57143;55.940;37.496;2023-08-06T08:23:00;10.50;;;5.60;;
69847;SDS011;57143;55.940;37.496;2023-08-06T08:25:28;11.20;;;5.70;;
69847;SDS011;57143;55.940;37.496;2023-08-06T08:27:57;11.95;;;5.82;;
69847;SDS011;57143;55.940;37.496;2023-08-06T08:30:25;9.30;;;5.28;;
69847;SDS011;57143;55.940;37.496;2023-08-06T08:32:52;10.55;;;6.10;;
69847;SDS011;57143;55.940;37.496;2023-08-06T08:35:20;13.98;;;6.13;;
69847;SDS011;57143;55.940;37.496;2023-08-06T08:37:47;12.50;;;6.03;;
69847;SDS011;57143;55.940;37.496;2023-08-06T08:40:14;11.02;;;6.03;;
69847;SDS011;57143;55.940;37.496;2023-08-06T08:42:42;9.40;;;6.03;;
69847;SDS011;57143;55.940;37.496;2023-08-06T08:45:11;10.45;;;5.93;;
69847;SDS011;57143;55.940;37.496;2023-08-06T08:47:41;9.68;;;5.85;;
69847;SDS011;57143;55.940;37.496;2023-08-06T08:50:09;10.40;;;5.70;;
69847;SDS011;57143;55.940;37.496;2023-08-06T08:52:39;9.13;;;5.35;;
69847;SDS011;57143;55.940;37.496;2023-08-06T08:55:07;11.50;;;5.47;;
69847;SDS011;57143;55.940;37.496;2023-08-06T08:57:35;11.48;;;5.97;;
69847;SDS011;57143;55.940;37.496;2023-08-06T09:00:02;9.65;;;5.55;;
69847;SDS011;57143;55.940;37.496;2023-08-06T09:02:31;13.27;;;5.70;;
69847;SDS011;57143;55.940;37.496;2023-08-06T09:05:01;11.82;;;6.25;;
69847;SDS011;57143;55.940;37.496;2023-08-06T09:07:32;8.48;;;5.43;;
69847;SDS011;57143;55.940;37.496;2023-08-06T09:10:06;17.67;;;6.07;;
69847;SDS011;57143;55.940;37.496;2023-08-06T09:12:37;11.48;;;5.63;;
69847;SDS011;57143;55.940;37.496;2023-08-06T09:15:04;12.27;;;5.87;;
69847;SDS011;57143;55.940;37.496;2023-08-06T09:17:32;11.50;;;5.68;;
69847;SDS011;57143;55.940;37.496;2023-08-06T09:20:09;13.57;;;6.28;;
69847;SDS011;57143;55.940;37.496;2023-08-06T09:22:37;11.57;;;5.70;;
69847;SDS011;57143;55.940;37.496;2023-08-06T09:25:05;12.02;;;6.32;;
69847;SDS011;57143;55.940;37.496;2023-08-06T09:27:35;11.27;;;6.40;;
69847;SDS011;57143;55.940;37.496;2023-08-06T09:30:03;13.68;;;6.53;;
69847;SDS011;57143;55.940;37.496;2023-08-06T09:32:44;11.05;;;5.78;;
69847;SDS011;57143;55.940;37.496;2023-08-06T09:35:17;11.52;;;5.95;;
69847;SDS011;57143;55.940;37.496;2023-08-06T09:37:45;10.40;;;6.07;;
69847;SDS011;57143;55.940;37.496;2023-08-06T09:42:53;12.10;;;6.63;;
69847;SDS011;57143;55.940;37.496;2023-08-06T09:45:20;11.02;;;6.05;;
69847;SDS011;57143;55.940;37.496;2023-08-06T09:47:48;9.18;;;6.63;;
69847;SDS011;57143;55.940;37.496;2023-08-06T09:50:18;11.02;;;5.80;;
69847;SDS011;57143;55.940;37.496;2023-08-06T09:52:46;11.20;;;6.60;;
69847;SDS011;57143;55.940;37.496;2023-08-06T09:55:14;10.95;;;6.13;;
69847;SDS011;57143;55.940;37.496;2023-08-06T09:57:41;11.40;;;5.85;;
69847;SDS011;57143;55.940;37.496;2023-08-06T10:00:10;10.60;;;5.78;;
69847;SDS011;57143;55.940;37.496;2023-08-06T10:02:39;10.05;;;6.43;;
69847;SDS011;57143;55.940;37.496;2023-08-06T10:05:07;11.07;;;6.70;;
69847;SDS011;57143;55.940;37.496;2023-08-06T10:07:36;10.50;;;6.22;;
69847;SDS011;57143;55.940;37.496;2023-08-06T10:10:06;12.00;;;6.25;;
69847;SDS011;57143;55.940;37.496;2023-08-06T10:12:34;9.43;;;6.35;;
69847;SDS011;57143;55.940;37.496;2023-08-06T10:15:06;10.27;;;6.20;;
69847;SDS011;57143;55.940;37.496;2023-08-06T10:17:37;11.13;;;6.83;;
69847;SDS011;57143;55.940;37.496;2023-08-06T10:20:06;12.43;;;6.95;;
69847;SDS011;57143;55.940;37.496;2023-08-06T10:22:34;9.88;;;6.55;;
69847;SDS011;57143;55.940;37.496;2023-08-06T10:25:09;9.48;;;6.43;;
69847;SDS011;57143;55.940;37.496;2023-08-06T10:27:39;11.77;;;6.32;;
69847;SDS011;57143;55.940;37.496;2023-08-06T10:30:23;12.47;;;7.27;;
69847;SDS011;57143;55.940;37.496;2023-08-06T10:32:52;10.25;;;6.63;;
69847;SDS011;57143;55.940;37.496;2023-08-06T10:35:31;10.13;;;6.72;;
69847;SDS011;57143;55.940;37.496;2023-08-06T10:38:07;10.93;;;6.10;;
69847;SDS011;57143;55.940;37.496;2023-08-06T10:40:36;11.05;;;6.00;;
69847;SDS011;57143;55.940;37.496;2023-08-06T10:43:04;11.30;;;6.27;;
69847;SDS011;57143;55.940;37.496;2023-08-06T10:45:34;9.80;;;5.57;;
69847;SDS011;57143;55.940;37.496;2023-08-06T10:48:02;11.48;;;5.70;;
69847;SDS011;57143;55.940;37.496;2023-08-06T10:50:30;10.68;;;5.75;;
69847;SDS011;57143;55.940;37.496;2023-08-06T10:52:57;13.05;;;6.13;;
69847;SDS011;57143;55.940;37.496;2023-08-06T10:55:32;13.33;;;6.90;;
69847;SDS011;57143;55.940;37.496;2023-08-06T10:57:59;12.43;;;6.68;;
69847;SDS011;57143;55.940;37.496;2023-08-06T11:00:26;13.98;;;5.88;;
69847;SDS011;57143;55.940;37.496;2023-08-06T11:02:54;11.27;;;6.80;;
69847;SDS011;57143;55.940;37.496;2023-08-06T11:05:21;10.40;;;6.13;;
69847;SDS011;57143;55.940;37.496;2023-08-06T11:07:48;11.27;;;6.43;;
69847;SDS011;57143;55.940;37.496;2023-08-06T11:10:16;13.68;;;6.57;;
69847;SDS011;57143;55.940;37.496;2023-08-06T11:12:46;12.77;;;6.22;;
69847;SDS011;57143;55.940;37.496;2023-08-06T11:15:13;11.15;;;5.95;;
69847;SDS011;57143;55.940;37.496;2023-08-06T11:17:40;11.98;;;6.10;;
69847;SDS011;57143;55.940;37.496;2023-08-06T11:20:08;11.93;;;6.13;;
69847;SDS011;57143;55.940;37.496;2023-08-06T11:22:37;10.98;;;6.60;;
69847;SDS011;57143;55.940;37.496;2023-08-06T11:25:05;10.77;;;6.25;;
69847;SDS011;57143;55.940;37.496;2023-08-06T11:27:33;12.40;;;6.88;;
69847;SDS011;57143;55.940;37.496;2023-08-06T11:30:02;10.65;;;6.53;;
69847;SDS011;57143;55.940;37.496;2023-08-06T11:32:31;10.80;;;6.50;;
69847;SDS011;57143;55.940;37.496;2023-08-06T11:34:59;12.27;;;5.80;;
69847;SDS011;57143;55.940;37.496;2023-08-06T11:37:35;12.27;;;6.60;;
69847;SDS011;57143;55.940;37.496;2023-08-06T11:40:05;9.95;;;6.38;;
69847;SDS011;57143;55.940;37.496;2023-08-06T11:42:36;11.27;;;6.57;;
69847;SDS011;57143;55.940;37.496;2023-08-06T11:45:06;10.10;;;5.97;;
69847;SDS011;57143;55.940;37.496;2023-08-06T11:47:37;11.63;;;6.70;;
69847;SDS011;57143;55.940;37.496;2023-08-06T11:50:06;10.60;;;6.40;;
69847;SDS011;57143;55.940;37.496;2023-08-06T11:52:34;8.57;;;6.22;;
69847;SDS011;57143;55.940;37.496;2023-08-06T11:55:06;10.77;;;6.47;;
69847;SDS011;57143;55.940;37.496;2023-08-06T11:57:36;10.97;;;6.43;;
69847;SDS011;57143;55.940;37.496;2023-08-06T12:00:07;11.70;;;6.22;;
69847;SDS011;57143;55.940;37.496;2023-08-06T12:02:38;12.07;;;6.20;;
69847;SDS011;57143;55.940;37.496;2023-08-06T12:05:10;9.77;;;6.30;;
69847;SDS011;57143;55.940;37.496;2023-08-06T12:07:38;14.25;;;6.70;;
69847;SDS011;57143;55.940;37.496;2023-08-06T12:10:08;10.70;;;6.73;;
69847;SDS011;57143;55.940;37.496;2023-08-06T12:12:36;8.88;;;6.22;;
69847;SDS011;57143;55.940;37.496;2023-08-06T12:15:04;10.68;;;6.28;;
69847;SDS011;57143;55.940;37.496;2023-08-06T12:17:34;9.45;;;6.32;;
69847;SDS011;57143;55.940;37.496;2023-08-06T12:20:02;13.90;;;6.45;;
69847;SDS011;57143;55.940;37.496;2023-08-06T12:22:31;10.50;;;6.00;;
69847;SDS011;57143;55.940;37.496;2023-08-06T12:25:00;12.05;;;6.35;;
69847;SDS011;57143;55.940;37.496;2023-08-06T12:27:30;10.35;;;6.18;;
69847;SDS011;57143;55.940;37.496;2023-08-06T12:29:57;13.90;;;6.55;;
69847;SDS011;57143;55.940;37.496;2023-08-06T12:32:25;10.52;;;6.45;;
69847;SDS011;57143;55.940;37.496;2023-08-06T12:34:53;10.93;;;6.10;;
69847;SDS011;57143;55.940;37.496;2023-08-06T12:37:20;11.40;;;6.85;;
69847;SDS011;57143;55.940;37.496;2023-08-06T12:39:48;9.52;;;5.57;;
69847;SDS011;57143;55.940;37.496;2023-08-06T12:42:15;10.60;;;5.45;;
69847;SDS011;57143;55.940;37.496;2023-08-06T12:44:42;12.63;;;6.18;;
69847;SDS011;57143;55.940;37.496;2023-08-06T12:47:10;9.53;;;6.57;;
69847;SDS011;57143;55.940;37.496;2023-08-06T12:49:38;13.07;;;6.05;;
69847;SDS011;57143;55.940;37.496;2023-08-06T12:52:05;11.43;;;6.20;;
69847;SDS011;57143;55.940;37.496;2023-08-06T12:54:34;11.95;;;6.32;;
69847;SDS011;57143;55.940;37.496;2023-08-06T12:57:02;9.63;;;6.28;;
69847;SDS011;57143;55.940;37.496;2023-08-06T12:59:30;12.70;;;6.60;;
69847;SDS011;57143;55.940;37.496;2023-08-06T13:01:58;13.65;;;8.02;;
69847;SDS011;57143;55.940;37.496;2023-08-06T13:04:26;11.60;;;6.30;;
69847;SDS011;57143;55.940;37.496;2023-08-06T13:06:55;10.20;;;6.53;;
69847;SDS011;57143;55.940;37.496;2023-08-06T13:09:22;10.95;;;6.47;;
69847;SDS011;57143;55.940;37.496;2023-08-06T13:11:50;11.30;;;6.33;;
69847;SDS011;57143;55.940;37.496;2023-08-06T13:14:17;14.07;;;6.10;;
69847;SDS011;57143;55.940;37.496;2023-08-06T13:16:44;13.32;;;6.43;;
69847;SDS011;57143;55.940;37.496;2023-08-06T13:19:11;12.98;;;6.10;;
69847;SDS011;57143;55.940;37.496;2023-08-06T13:24:35;12.07;;;6.17;;
69847;SDS011;57143;55.940;37.496;2023-08-06T13:27:03;9.77;;;5.80;;
69847;SDS011;57143;55.940;37.496;2023-08-06T13:29:30;12.27;;;6.15;;
69847;SDS011;57143;55.940;37.496;2023-08-06T13:31:57;11.57;;;6.15;;
69847;SDS011;57143;55.940;37.496;2023-08-06T13:34:24;12.13;;;5.78;;
69847;SDS011;57143;55.940;37.496;2023-08-06T13:36:51;11.47;;;6.17;;
69847;SDS011;57143;55.940;37.496;2023-08-06T13:39:20;11.23;;;6.32;;
69847;SDS011;57143;55.940;37.496;2023-08-06T13:41:47;10.98;;;7.22;;
69847;SDS011;57143;55.940;37.496;2023-08-06T13:44:14;14.30;;;6.35;;
69847;SDS011;57143;55.940;37.496;2023-08-06T13:46:42;12.65;;;5.70;;
69847;SDS011;57143;55.940;37.496;2023-08-06T13:49:09;13.13;;;6.33;;
69847;SDS011;57143;55.940;37.496;2023-08-06T13:51:37;14.30;;;5.85;;
69847;SDS011;57143;55.940;37.496;2023-08-06T13:54:04;9.50;;;5.85;;
69847;SDS011;57143;55.940;37.496;2023-08-06T13:56:34;11.70;;;5.85;;
69847;SDS011;57143;55.940;37.496;2023-08-06T13:59:03;10.68;;;5.68;;
69847;SDS011;57143;55.940;37.496;2023-08-06T14:01:31;11.00;;;6.20;;
69847;SDS011;57143;55.940;37.496;2023-08-06T14:03:58;9.35;;;5.93;;
69847;SDS011;57143;55.940;37.496;2023-08-06T14:06:25;7.80;;;5.45;;
69847;SDS011;57143;55.940;37.496;2023-08-06T14:08:52;12.40;;;5.72;;
69847;SDS011;57143;55.940;37.496;2023-08-06T14:11:19;10.60;;;6.00;;
69847;SDS011;57143;55.940;37.496;2023-08-06T14:13:48;13.77;;;4.93;;
69847;SDS011;57143;55.940;37.496;2023-08-06T14:16:15;9.23;;;5.32;;
69847;SDS011;57143;55.940;37.496;2023-08-06T14:18:42;8.15;;;5.07;;
69847;SDS011;57143;55.940;37.496;2023-08-06T14:21:10;9.15;;;5.75;;
69847;SDS011;57143;55.940;37.496;2023-08-06T14:23:37;10.15;;;5.85;;
69847;SDS011;57143;55.940;37.496;2023-08-06T14:26:06;9.03;;;6.03;;
69847;SDS011;57143;55.940;37.496;2023-08-06T14:28:35;11.23;;;5.57;;
69847;SDS011;57143;55.940;37.496;2023-08-06T14:31:04;10.50;;;5.55;;
69847;SDS011;57143;55.940;37.496;2023-08-06T14:33:32;10.15;;;5.40;;
69847;SDS011;57143;55.940;37.496;2023-08-06T14:35:59;11.77;;;5.07;;